Huvudsida
METAR-TAF:

METAR-TAF

Flygplatser :

Moss flygplats. Rygge

Rygge, Norge

latitud: 59-23N, longitud: 010-47E, höjd: 5 m

Aktuellt väderrapport

Denna rapport gjordes för 22 minuter sedan, klockan 04:50 UTC
Vind 1 kt varierande vindriktning
Temperatur 5°C
Fuktighet 93%
Tryck 1039 hPa
Sikt 10 km eller mer

METAR: ENRY 170450Z AUTO VRB01KT 9999NDV OVC019/// 05/04 Q1039

Tid: 06:12 (05:12 UTC)

Väderprognos

Prognos gäller från 17 kl. 00 UTC till 17 kl. 24 UTC
Vind 5 kt varierande vindriktning
Sikt 10 km eller mer
Brutna moln på en höjd av 2000 ft
Temporärt
från 17 kl. 00 UTC till 17 kl. 20 UTC
Brutna moln på en höjd av 1200 ft
Sannolikhet 30%
från 17 kl. 04 UTC till 17 kl. 11 UTC
Sikt: 0500 m
på en höjd av 100 ft
dimma
Sannolikhet 30%
från 17 kl. 20 UTC till 17 kl. 24 UTC
Sikt: 0500 m
på en höjd av 100 ft
dimma

TAF: ENRY 1700/1724 VRB05KT 9999 BKN020 TEMPO 1700/1720 BKN012 PROB30 1704/1711 0500 FG VV001 PROB30 1720/1724 0500 FG VV001

Aktuella väderrapporter och prognoser från 4000 flygplatser (METAR- och TAF-rapporter).

De tillgängliga stationerna syns som gula och röda prickar på kartan.

För musen över prickarna för att se namnen på stationerna.

Klicka sedan för att få väderrapporter och prognoser.

För att ändra kartan: Klicka på de gröna knapparna med ett svart kors på för att zooma in; den gröna knappen med ett streck på för att zooma ut; eller på de gröna pilarna för angränsande kartor.


METAR-TAF: